Portada
METAR-TAF:

METAR-TAF

Aeropuertos :

Honiara, Guadalcanal, Islas Salomón

Aeropuerto Internacional de Honiara

latitud: 09-25S, longitud: 160-03E, altitud: 8 m

Observación

El informe se hizo hace 57 minutos, a las 05:00 UTC
Viento 12 kt del este-noreste
Temperatura 31°C
Humedad 66%
Presión 1007 hPa
Visibilidad 10 km o más
Escasas nubes a una altura de 2000 ft
calima

METAR: AGGH 170500Z 07012KT 9999 HZ FEW020 31/24 Q1007

Hora: 16:57 (05:57 UTC)

Pronóstico

El informe se hizo hace 35 minutos, a las 05:22 UTC
Pronóstico válido del 17 a las 06 UTC al 18 a las 06 UTC
Viento 3 kt con dirección variable
Visibilidad: 1008 m
Escasas nubes a una altura de 1600 ft

TAF: AGGH 170522Z 1706/1806 VRB03KT 9999 FEW016 T 29 27 26 25 Q 1008 1010 1010 1008

Observaciones y pronósticos meteorológicos de más de 4000 aeropuertos (mensajes METAR y TAF).

Los puntos amarillos y rojos representan las estaciones disponibles.

Ponga el ratón en el punto deseado para ver el nombre de la estación.

Haga clic para ver las observaciones y los pronósticos meteorológicos.

Para cambiar el mapa : haga clic en los botones verdes con una cruz de color negro para hacer un zoom, en el botón verde con un guión para alejar o en las flechas verdes para mapas adyacentes.


METAR-TAF: